Time;durP1;ratioP1;P1;durP2;ratioP2;P2;SDS_P1;SDS_P2;PMS_P1;PMS_P2;Temp;Humidity;BMP_temperature;BMP_pressure;BME280_temperature;BME280_humidity;BME280_pressure;Samples;Min_cycle;Max_cycle;Signal;HPM_P1;HPM_P2
2022/02/28 00:00:52;;;;;;;12.17;9.83;;;0.30;60.20;;;-1.41;69.14;99451.44;5004578;28;20595;-81
2022/02/28 00:03:20;;;;;;;15.57;8.93;;;0.20;60.20;;;-1.62;69.55;99417.47;5002109;28;20462;-80
2022/02/28 00:05:47;;;;;;;11.30;9.30;;;0.20;60.40;;;-1.49;69.39;99444.00;5018329;28;20457;-80
2022/02/28 00:08:14;;;;;;;11.70;8.87;;;0.20;60.40;;;-1.52;69.39;99435.38;5000285;28;20522;-79
2022/02/28 00:10:41;;;;;;;14.80;9.30;;;0.10;60.90;;;-1.55;69.52;99444.41;5016925;28;20450;-80
2022/02/28 00:13:09;;;;;;;12.17;8.13;;;0.10;60.60;;;-1.57;69.58;99451.63;5018102;28;20467;-80
2022/02/28 00:15:38;;;;;;;12.40;9.60;;;0.10;60.90;;;-1.56;69.64;99450.66;5018260;28;20986;-81
2022/02/28 00:18:04;;;;;;;14.07;8.63;;;0.10;61.00;;;-1.58;70.15;99447.28;5001278;28;20475;-81
2022/02/28 00:20:32;;;;;;;12.77;10.20;;;0.00;61.00;;;-1.58;69.98;99444.63;5022458;28;20526;-81
2022/02/28 00:22:59;;;;;;;10.90;8.90;;;0.00;61.00;;;-1.66;70.16;99447.78;5001109;28;20447;-82
2022/02/28 00:25:26;;;;;;;11.33;9.00;;;0.00;61.20;;;-1.68;70.40;99443.53;5017500;28;20534;-81
2022/02/28 00:27:53;;;;;;;13.23;9.20;;;0.00;61.30;;;-1.78;70.65;99452.09;5000809;28;20503;-79
2022/02/28 00:30:21;;;;;;;13.47;8.83;;;-0.10;61.60;;;-1.91;71.77;99457.34;5019172;28;20439;-80
2022/02/28 00:32:49;;;;;;;12.60;8.40;;;-0.30;61.90;;;-1.83;70.88;99451.53;5003142;28;20467;-79
2022/02/28 00:35:16;;;;;;;11.70;10.23;;;-0.30;62.30;;;-1.96;71.57;99445.34;5014999;28;20443;-81
2022/02/28 00:37:43;;;;;;;10.87;9.60;;;-0.30;62.30;;;-1.93;71.17;99447.78;5030983;28;20518;-80
2022/02/28 00:40:11;;;;;;;13.73;9.50;;;-0.30;62.60;;;-1.89;71.73;99451.97;5026811;28;20922;-77
2022/02/28 00:42:38;;;;;;;13.40;9.20;;;-0.30;62.50;;;-1.92;71.59;99452.13;5001224;28;20531;-77
2022/02/28 00:45:06;;;;;;;12.93;10.00;;;-0.30;62.80;;;-1.95;71.69;99449.69;4999308;28;20439;-78
2022/02/28 00:47:33;;;;;;;11.17;8.70;;;-0.30;63.00;;;-1.90;71.85;99445.78;5018424;28;20521;-79
2022/02/28 00:50:02;;;;;;;14.60;10.10;;;-0.30;63.10;;;-1.95;71.30;99445.25;5035660;28;20439;-80
2022/02/28 00:52:29;;;;;;;14.00;8.70;;;-0.30;63.00;;;-1.93;71.94;99445.13;5038740;28;20463;-78
2022/02/28 00:54:56;;;;;;;12.70;8.80;;;-0.30;63.00;;;-1.96;71.96;99445.34;5025905;28;20859;-81
2022/02/28 00:57:23;;;;;;;13.57;9.57;;;-0.30;63.20;;;-1.89;71.47;99442.19;5018380;28;20443;-80
2022/02/28 00:59:50;;;;;;;10.57;9.13;;;-0.30;63.10;;;-2.16;71.69;99392.72;5000171;28;20514;-79
2022/02/28 01:02:18;;;;;;;13.00;9.33;;;-0.30;63.10;;;-1.96;71.09;99424.16;5016930;28;20440;-79
2022/02/28 01:04:45;;;;;;;11.07;8.60;;;-0.30;63.00;;;-1.89;71.38;99426.28;4999647;28;20530;-80
2022/02/28 01:07:13;;;;;;;12.90;10.07;;;-0.20;63.20;;;-2.02;71.35;99426.25;4999706;28;20543;-81
2022/02/28 01:09:40;;;;;;;12.47;8.37;;;-0.30;63.10;;;-1.92;71.31;99425.66;5018297;28;20962;-86
2022/02/28 01:12:08;;;;;;;14.07;9.27;;;-0.20;63.30;;;-1.93;71.81;99429.25;5001888;28;20947;-86
2022/02/28 01:14:37;;;;;;;18.93;9.60;;;-0.30;63.20;;;-1.98;71.98;99418.09;5025041;28;20471;-85
2022/02/28 01:17:05;;;;;;;11.37;9.80;;;-0.30;63.20;;;-1.90;71.11;99434.34;5027913;28;20523;-86
2022/02/28 01:19:33;;;;;;;14.03;9.53;;;-0.30;63.20;;;-2.13;71.46;99391.69;5018711;28;20522;-86
2022/02/28 01:22:00;;;;;;;13.60;9.20;;;-0.30;63.10;;;-2.07;71.62;99399.22;5000338;28;20537;-86
2022/02/28 01:24:28;;;;;;;11.87;9.00;;;-0.30;63.60;;;-1.93;71.67;99426.59;5016303;28;20475;-82
2022/02/28 01:26:55;;;;;;;12.03;8.70;;;-0.30;63.20;;;-2.02;71.78;99410.38;5016920;28;20474;-83
2022/02/28 01:29:22;;;;;;;14.33;10.77;;;-0.30;63.30;;;-1.87;71.32;99424.41;5015825;28;20446;-82
2022/02/28 01:31:49;;;;;;;14.33;10.10;;;-0.30;63.40;;;-1.93;71.68;99421.28;5016650;28;20519;-82
2022/02/28 01:34:16;;;;;;;15.23;9.03;;;-0.30;63.40;;;-1.91;71.81;99422.03;5016601;28;20505;-82
2022/02/28 01:36:44;;;;;;;14.33;10.00;;;-0.30;63.50;;;-2.04;71.25;99414.06;5000044;28;20538;-82
2022/02/28 01:39:11;;;;;;;11.77;8.97;;;-0.30;63.40;;;-1.92;71.60;99423.00;4998870;28;20498;-82
2022/02/28 01:41:40;;;;;;;12.80;9.30;;;-0.30;63.40;;;-1.92;71.29;99423.00;5015635;28;20535;-81
2022/02/28 01:44:09;;;;;;;17.13;9.87;;;-0.30;63.40;;;-2.00;71.23;99413.75;4999069;28;20435;-82
2022/02/28 01:46:36;;;;;;;13.43;9.10;;;-0.30;63.50;;;-2.15;71.56;99404.16;4998557;28;20454;-82
2022/02/28 01:49:03;;;;;;;17.07;9.80;;;-0.40;63.50;;;-2.11;71.84;99410.13;5015938;28;20451;-83
2022/02/28 01:51:30;;;;;;;12.30;10.03;;;-0.40;63.80;;;-2.04;71.29;99419.34;5016267;28;20436;-81
2022/02/28 01:53:57;;;;;;;15.13;9.60;;;-0.40;63.70;;;-2.05;71.48;99404.41;5016609;28;20865;-81
2022/02/28 01:56:24;;;;;;;14.60;9.40;;;-0.40;63.70;;;-2.00;71.69;99424.34;5016471;28;20436;-82
2022/02/28 01:58:52;;;;;;;15.97;9.93;;;-0.40;63.80;;;-2.02;71.89;99423.63;5016270;28;20442;-82
2022/02/28 02:01:21;;;;;;;10.47;8.60;;;-0.40;63.80;;;-2.05;71.66;99415.84;5015515;28;20443;-82
2022/02/28 02:03:48;;;;;;;14.60;10.10;;;-0.40;63.80;;;-2.13;71.33;99400.44;5023506;28;20444;-83
2022/02/28 02:06:15;;;;;;;11.80;8.90;;;-0.40;63.70;;;-2.10;71.98;99414.47;4999363;28;20493;-81
2022/02/28 02:08:42;;;;;;;15.00;9.77;;;-0.40;63.80;;;-2.23;72.42;99419.69;4998960;28;20931;-81
2022/02/28 02:11:09;;;;;;;18.83;9.50;;;-0.50;64.10;;;-2.27;73.13;99416.41;5020341;28;20530;-82
2022/02/28 02:13:36;;;;;;;14.67;9.03;;;-0.60;65.00;;;-2.34;73.10;99413.31;5026634;28;20498;-82
2022/02/28 02:16:06;;;;;;;11.50;8.83;;;-0.70;64.80;;;-2.37;73.17;99394.13;5024919;28;20471;-79
2022/02/28 02:18:33;;;;;;;15.93;9.20;;;-0.70;65.00;;;-2.27;72.92;99416.41;5020738;28;20476;-79
2022/02/28 02:21:01;;;;;;;13.73;9.33;;;-0.60;65.20;;;-2.32;73.08;99403.47;5021493;28;20474;-80
2022/02/28 02:23:29;;;;;;;13.50;10.33;;;-0.60;65.10;;;-2.31;73.01;99414.91;5011682;28;20515;-79
2022/02/28 02:25:56;;;;;;;12.87;10.23;;;-0.60;65.20;;;-2.63;73.85;99405.44;5012962;28;20458;-81
2022/02/28 02:28:23;;;;;;;16.10;10.23;;;-0.80;65.60;;;-2.50;74.07;99404.63;5011147;28;20923;-81
2022/02/28 02:30:53;;;;;;;13.17;10.50;;;-0.90;66.00;;;-2.60;73.76;99410.53;5026472;28;20539;-84
2022/02/28 02:33:21;;;;;;;15.57;9.27;;;-0.90;66.00;;;-2.76;74.30;99388.63;5007955;28;20459;-79
2022/02/28 02:35:53;;;;;;;15.47;10.67;;;-1.00;66.60;;;-2.79;74.54;99410.00;5002999;28;20830;-81
2022/02/28 02:38:24;;;;;;;10.50;8.83;;;-1.10;66.90;;;-2.95;75.49;99395.06;5019056;28;20463;-80
2022/02/28 02:40:52;;;;;;;12.70;9.27;;;-1.20;67.80;;;-2.80;75.22;99408.28;5017618;28;20471;-80
2022/02/28 02:43:20;;;;;;;14.73;9.77;;;-1.20;68.60;;;-2.71;74.75;99408.56;4999292;28;20479;-81
2022/02/28 02:45:47;;;;;;;11.67;9.67;;;-1.20;68.40;;;-2.72;74.98;99406.00;5015777;28;20471;-81
2022/02/28 02:48:18;;;;;;;13.97;9.20;;;-1.10;68.50;;;-2.61;74.76;99411.47;4998824;28;20520;-81
2022/02/28 02:50:46;;;;;;;11.40;8.97;;;-1.00;68.40;;;-2.64;75.00;99403.72;5016478;28;20436;-82
2022/02/28 02:53:14;;;;;;;13.53;9.63;;;-1.00;68.30;;;-2.59;74.39;99414.00;5016070;28;20463;-82
2022/02/28 02:55:43;;;;;;;12.10;9.47;;;-0.90;68.10;;;-2.74;75.36;99413.19;5000077;28;20953;-79
2022/02/28 02:58:13;;;;;;;14.73;10.87;;;-1.00;68.20;;;-2.79;75.48;99407.34;5015324;28;20527;-80
2022/02/28 03:00:42;;;;;;;12.87;9.60;;;-1.10;68.50;;;-2.90;75.53;99400.06;5015683;28;20919;-80
2022/02/28 03:03:10;;;;;;;15.60;7.90;;;-1.20;68.90;;;-2.91;75.75;99407.16;5015757;28;20539;-82
2022/02/28 03:05:38;;;;;;;11.60;9.30;;;-1.30;69.30;;;-2.88;75.62;99417.53;5015285;28;20485;-81
2022/02/28 03:08:05;;;;;;;14.17;9.87;;;-1.20;69.20;;;-2.94;76.19;99407.34;4997602;28;20479;-81
2022/02/28 03:10:33;;;;;;;10.70;9.27;;;-1.30;69.70;;;-3.06;76.36;99394.88;4999242;28;20811;-80
2022/02/28 03:13:01;;;;;;;13.60;10.20;;;-1.30;69.90;;;-3.21;76.76;99405.44;4998483;28;20442;-81
2022/02/28 03:15:30;;;;;;;13.13;9.20;;;-1.40;70.10;;;-3.31;77.71;99404.31;5014729;28;20990;-80
2022/02/28 03:17:57;;;;;;;13.30;9.87;;;-1.60;70.60;;;-3.47;78.80;99415.78;5014766;28;20519;-83
2022/02/28 03:20:24;;;;;;;16.80;10.07;;;-1.80;71.60;;;-3.56;78.87;99413.72;4997297;28;20467;-76
2022/02/28 03:22:52;;;;;;;13.50;10.10;;;-1.90;72.60;;;-3.48;78.82;99408.81;5015396;28;20479;-82
2022/02/28 03:25:20;;;;;;;14.70;10.60;;;-1.80;73.40;;;-3.45;77.54;99366.34;4981254;28;20453;-79
2022/02/28 03:27:47;;;;;;;15.13;10.43;;;-1.60;73.20;;;-3.04;77.05;99406.22;4996947;28;20471;-81
2022/02/28 03:30:15;;;;;;;14.83;10.80;;;-1.50;72.60;;;-3.02;76.88;99410.47;4996621;28;20550;-83
2022/02/28 03:32:42;;;;;;;13.07;9.67;;;-1.40;72.10;;;-3.16;77.53;99411.28;4996743;28;20443;-82
2022/02/28 03:35:10;;;;;;;14.23;10.50;;;-1.50;72.30;;;-3.44;77.41;99357.47;4997183;28;20471;-84
2022/02/28 03:37:37;;;;;;;16.70;11.33;;;-1.40;72.40;;;-3.16;77.29;99408.66;4996623;28;20522;-81
2022/02/28 03:40:06;;;;;;;16.80;9.40;;;-1.50;72.10;;;-3.14;77.38;99412.06;5014753;28;20542;-81
2022/02/28 03:42:33;;;;;;;14.47;11.00;;;-1.50;72.60;;;-3.30;77.79;99392.78;4997034;28;20466;-80
2022/02/28 03:45:00;;;;;;;14.53;10.83;;;-1.50;72.40;;;-3.36;78.58;99398.44;5013131;28;20918;-81
2022/02/28 03:47:28;;;;;;;14.20;10.43;;;-1.60;73.20;;;-3.10;77.47;99407.44;5014363;28;20447;-81
2022/02/28 03:49:55;;;;;;;12.00;10.30;;;-1.50;73.30;;;-3.21;77.90;99405.44;5013495;28;20510;-81
2022/02/28 03:52:22;;;;;;;15.67;11.00;;;-1.50;72.80;;;-3.15;78.10;99394.50;5014356;28;20494;-79
2022/02/28 03:54:49;;;;;;;14.77;10.03;;;-1.50;73.20;;;-3.08;77.15;99402.06;4996294;28;20554;-81
2022/02/28 03:57:16;;;;;;;16.33;10.80;;;-1.40;72.70;;;-3.17;77.75;99391.09;5014192;28;20538;-80
2022/02/28 03:59:43;;;;;;;15.50;10.40;;;-1.40;72.90;;;-3.08;77.94;99410.00;5014912;28;20482;-80
2022/02/28 04:02:10;;;;;;;15.77;10.27;;;-1.40;73.00;;;-3.17;77.90;99390.25;4996654;28;20467;-81
2022/02/28 04:04:41;;;;;;;15.77;11.50;;;-1.40;73.20;;;-3.11;77.88;99399.59;5014489;28;21012;-80
2022/02/28 04:07:09;;;;;;;14.77;10.80;;;-1.40;73.10;;;-3.16;77.94;99408.66;5014263;28;20439;-79
2022/02/28 04:09:37;;;;;;;15.90;11.10;;;-1.50;73.10;;;-3.21;78.46;99408.09;5014832;28;20493;-79
2022/02/28 04:12:05;;;;;;;15.07;10.90;;;-1.50;73.30;;;-3.25;78.70;99405.72;5014079;28;20475;-79
2022/02/28 04:14:32;;;;;;;14.30;11.10;;;-1.50;73.70;;;-3.28;78.53;99404.97;5014024;28;20491;-82
2022/02/28 04:16:59;;;;;;;15.07;11.40;;;-1.60;73.80;;;-3.31;79.40;99404.31;5013253;28;20517;-81
2022/02/28 04:19:26;;;;;;;18.80;12.27;;;-1.60;74.50;;;-3.34;79.51;99399.19;5012965;28;20561;-80
2022/02/28 04:21:54;;;;;;;18.40;11.93;;;-1.60;75.10;;;-3.35;79.08;99403.63;4997781;28;20427;-80
2022/02/28 04:24:21;;;;;;;13.60;11.00;;;-1.60;74.80;;;-3.36;79.59;99395.81;5013668;28;20549;-80
2022/02/28 04:26:48;;;;;;;15.00;11.00;;;-1.60;74.90;;;-3.37;79.47;99399.41;5015011;28;20435;-81
2022/02/28 04:29:15;;;;;;;16.10;10.90;;;-1.60;74.80;;;-3.40;79.77;99402.22;5017427;28;20447;-81
2022/02/28 04:31:42;;;;;;;17.57;12.70;;;-1.70;75.30;;;-3.45;79.68;99403.34;5016420;28;20646;-81
2022/02/28 04:34:10;;;;;;;15.80;10.97;;;-1.70;75.50;;;-3.36;79.33;99395.81;5000282;28;20471;-80
2022/02/28 04:36:37;;;;;;;14.23;10.43;;;-1.70;75.20;;;-3.35;79.39;99405.44;5021022;28;20453;-79
2022/02/28 04:39:05;;;;;;;17.93;12.60;;;-1.60;74.70;;;-3.58;80.13;99407.66;5033596;28;20423;-79
2022/02/28 04:41:32;;;;;;;14.67;10.10;;;-1.80;74.70;;;-4.01;80.46;99358.19;5037640;28;20439;-80
2022/02/28 04:43:59;;;;;;;16.70;11.00;;;-1.90;76.00;;;-3.70;81.23;99399.53;5007577;28;20535;-82
2022/02/28 04:46:26;;;;;;;18.60;11.60;;;-2.10;77.30;;;-3.54;80.25;99414.47;5022687;28;20451;-81
2022/02/28 04:48:53;;;;;;;16.13;10.60;;;-2.00;76.90;;;-3.48;79.89;99411.44;5000189;28;20439;-80
2022/02/28 04:51:20;;;;;;;13.70;11.20;;;-1.90;76.80;;;-3.63;80.09;99407.06;4999606;28;20935;-81
2022/02/28 04:53:47;;;;;;;16.73;10.80;;;-1.90;76.20;;;-4.30;81.09;99347.53;5017441;28;20526;-82
2022/02/28 04:56:15;;;;;;;17.97;11.57;;;-2.10;76.80;;;-3.93;81.40;99402.66;5016674;28;20436;-81
2022/02/28 04:58:42;;;;;;;13.70;10.40;;;-2.20;77.70;;;-3.84;81.51;99402.97;5017427;28;20791;-81
2022/02/28 05:01:09;;;;;;;16.60;11.10;;;-2.20;78.70;;;-3.75;80.97;99412.13;5018889;28;20963;-82
2022/02/28 05:03:36;;;;;;;17.57;10.70;;;-2.10;78.10;;;-3.83;81.29;99414.38;5016360;28;20994;-83
2022/02/28 05:06:03;;;;;;;16.27;12.00;;;-2.20;78.20;;;-3.93;81.40;99390.31;5004550;28;20439;-79
2022/02/28 05:08:30;;;;;;;16.90;11.87;;;-2.20;78.50;;;-3.89;81.24;99398.88;5026036;28;20467;-80
2022/02/28 05:10:57;;;;;;;15.50;12.37;;;-2.20;78.80;;;-3.68;80.92;99404.69;5017069;28;20444;-83
2022/02/28 05:13:26;;;;;;;16.60;11.23;;;-2.10;78.60;;;-3.63;80.45;99399.16;5016992;28;20438;-82
2022/02/28 05:15:53;;;;;;;17.23;11.80;;;-2.00;78.50;;;-3.48;80.18;99414.09;5016722;28;20463;-80
2022/02/28 05:18:20;;;;;;;17.20;12.70;;;-1.90;77.60;;;-3.45;80.04;99407.78;5016068;28;21014;-80
2022/02/28 05:20:47;;;;;;;16.80;11.60;;;-1.80;76.90;;;-3.44;80.09;99404.19;5016114;28;20479;-79
2022/02/28 05:23:14;;;;;;;21.67;12.67;;;-1.80;76.80;;;-3.68;79.71;99349.22;4999505;28;20440;-81
2022/02/28 05:25:41;;;;;;;16.63;12.13;;;-1.70;76.50;;;-3.36;79.73;99401.94;5015749;28;20479;-80
2022/02/28 05:28:08;;;;;;;18.53;12.50;;;-1.60;76.00;;;-3.44;79.79;99397.09;5015146;28;20440;-82
2022/02/28 05:30:36;;;;;;;17.33;12.23;;;-1.70;75.70;;;-3.34;79.51;99409.78;5016211;28;20448;-81
2022/02/28 05:33:03;;;;;;;15.33;12.03;;;-1.70;76.10;;;-3.30;79.30;99411.28;5016488;28;20443;-79
2022/02/28 05:35:30;;;;;;;19.60;12.90;;;-1.60;76.00;;;-3.33;79.63;99403.53;5016241;28;21057;-77
2022/02/28 05:37:57;;;;;;;14.50;11.37;;;-1.60;75.90;;;-3.31;79.17;99404.31;5016424;28;20943;-80
2022/02/28 05:40:25;;;;;;;16.90;11.27;;;-1.60;75.80;;;-3.31;79.09;99414.88;5016923;28;20961;-78
2022/02/28 05:42:52;;;;;;;16.10;12.33;;;-1.60;75.80;;;-3.32;79.58;99414.03;5016206;28;20535;-80
2022/02/28 05:45:19;;;;;;;15.63;11.40;;;-1.60;75.70;;;-3.37;79.67;99417.91;5016647;28;20975;-83
2022/02/28 05:47:47;;;;;;;18.80;13.00;;;-1.70;76.10;;;-3.51;80.17;99405.50;5001754;28;20490;-84
2022/02/28 05:50:14;;;;;;;22.60;13.07;;;-1.70;76.40;;;-3.37;79.70;99423.19;5020248;28;20529;-82
2022/02/28 05:52:41;;;;;;;16.20;11.90;;;-1.70;77.00;;;-3.47;80.05;99418.44;5015768;28;20439;-71
2022/02/28 05:55:09;;;;;;;21.43;11.73;;;-1.70;76.70;;;-3.58;80.09;99400.59;4998630;28;20502;-79
2022/02/28 05:57:37;;;;;;;18.80;12.20;;;-1.70;76.80;;;-3.38;79.90;99413.56;5015474;28;20486;-81
2022/02/28 06:00:07;;;;;;;14.93;11.63;;;-1.70;76.60;;;-3.32;79.46;99411.41;4999724;28;20486;-81
2022/02/28 06:02:34;;;;;;;19.27;12.33;;;-1.60;76.40;;;-3.29;79.38;99410.34;4999844;28;20447;-81
2022/02/28 06:05:03;;;;;;;18.17;13.10;;;-1.60;76.20;;;-3.26;79.74;99415.47;5016917;28;20479;-77
2022/02/28 06:07:30;;;;;;;17.50;12.10;;;-1.60;75.80;;;-3.19;78.95;99416.78;5015029;28;20831;-77
2022/02/28 06:09:57;;;;;;;17.03;11.50;;;-1.50;75.90;;;-3.24;79.07;99424.16;5000399;28;20439;-81
2022/02/28 06:12:24;;;;;;;17.30;12.57;;;-1.50;75.70;;;-3.08;78.67;99410.00;5017317;28;20443;-80
2022/02/28 06:14:51;;;;;;;19.90;12.70;;;-1.50;75.40;;;-3.04;78.39;99414.16;4999177;28;20539;-80
2022/02/28 06:17:18;;;;;;;20.67;12.63;;;-1.40;75.20;;;-3.06;78.71;99413.38;5016670;28;20471;-80
2022/02/28 06:19:46;;;;;;;20.40;12.17;;;-1.40;75.20;;;-3.32;78.61;99395.53;4998933;28;20439;-80
2022/02/28 06:22:15;;;;;;;19.10;13.90;;;-1.40;75.00;;;-3.03;78.66;99424.66;5018845;28;20447;-81
2022/02/28 06:24:42;;;;;;;20.43;13.63;;;-1.40;75.10;;;-3.00;78.44;99420.94;5017996;28;20435;-79
2022/02/28 06:27:09;;;;;;;19.70;12.80;;;-1.30;74.90;;;-3.08;78.80;99424.06;5016598;28;20498;-80
2022/02/28 06:29:36;;;;;;;34.23;14.33;;;-1.30;74.80;;;-3.09;78.88;99440.03;5014687;28;20479;-79
2022/02/28 06:32:04;;;;;;;20.60;12.77;;;-1.30;74.80;;;-2.99;78.28;99430.56;5016463;28;20507;-81
2022/02/28 06:34:31;;;;;;;18.70;12.80;;;-1.30;74.80;;;-2.87;77.82;99436.91;5016827;28;20849;-86
2022/02/28 06:36:58;;;;;;;17.83;12.00;;;-1.20;74.60;;;-2.92;78.26;99437.19;5017310;28;20533;-82
2022/02/28 06:39:27;;;;;;;21.83;13.57;;;-1.20;74.60;;;-2.85;77.88;99445.63;5016649;28;20530;-81
2022/02/28 06:41:54;;;;;;;22.43;11.93;;;-1.20;74.50;;;-2.82;77.25;99431.31;4999213;28;20447;-81
2022/02/28 06:44:21;;;;;;;21.73;13.07;;;-1.10;74.30;;;-2.76;77.62;99445.03;5016206;28;20447;-81
2022/02/28 06:46:48;;;;;;;15.17;11.70;;;-1.10;74.10;;;-2.70;77.23;99441.16;5016916;28;20457;-81
2022/02/28 06:49:15;;;;;;;17.10;12.13;;;-1.00;74.10;;;-2.78;78.11;99448.72;5016367;28;20467;-82
2022/02/28 06:51:42;;;;;;;16.67;12.43;;;-1.10;74.40;;;-2.69;77.69;99453.44;5002290;28;20475;-77
2022/02/28 06:54:09;;;;;;;19.23;12.70;;;-1.10;75.20;;;-2.51;76.75;99463.81;5026732;28;20435;-79
2022/02/28 06:56:38;;;;;;;22.30;12.80;;;-1.00;74.20;;;-2.49;76.26;99459.28;5027006;28;20467;-81
2022/02/28 06:59:05;;;;;;;22.27;12.40;;;-0.90;73.70;;;-2.38;76.33;99464.75;5027721;28;20439;-78
2022/02/28 07:01:35;;;;;;;24.87;13.80;;;-0.80;73.80;;;-2.37;76.13;99450.56;5002825;28;20468;-78
2022/02/28 07:04:02;;;;;;;23.07;13.73;;;-0.70;73.60;;;-2.24;76.63;99469.19;5026023;28;20453;-80
2022/02/28 07:06:29;;;;;;;33.37;14.00;;;-0.70;74.00;;;-2.11;75.00;99468.41;5037913;28;20442;-80
2022/02/28 07:08:56;;;;;;;27.70;15.10;;;-0.60;72.90;;;-2.13;74.79;99471.97;5038090;28;20529;-78
2022/02/28 07:11:23;;;;;;;24.23;14.20;;;-0.50;72.30;;;-2.01;74.79;99470.34;5025325;28;20458;-79
2022/02/28 07:13:52;;;;;;;22.30;13.03;;;-0.40;72.70;;;-1.90;74.70;99466.13;5022142;28;20442;-79
2022/02/28 07:16:19;;;;;;;20.00;15.02;;;-0.30;71.90;;;-2.02;73.31;99407.72;5039642;28;20936;-78
2022/02/28 07:18:46;;;;;;;18.43;14.73;;;-0.20;71.50;;;-1.76;73.58;99462.59;5037465;28;20184;-81
2022/02/28 07:21:13;;;;;;;20.10;13.53;;;-0.10;70.90;;;-1.71;73.40;99476.38;5035256;28;20439;-74
2022/02/28 07:23:41;;;;;;;18.17;13.93;;;-0.10;70.80;;;-1.62;72.95;99470.47;5035589;28;20920;-75
2022/02/28 07:26:08;;;;;;;19.80;13.43;;;0.00;70.70;;;-1.67;73.34;99469.91;5033415;28;20522;-67
2022/02/28 07:28:35;;;;;;;17.93;13.10;;;0.00;70.40;;;-1.49;73.10;99473.16;5033438;28;20438;-68
2022/02/28 07:31:03;;;;;;;19.57;12.33;;;0.10;70.80;;;-1.37;72.88;99470.66;5015643;28;20537;-68
2022/02/28 07:33:30;;;;;;;20.93;14.23;;;0.20;70.40;;;-1.34;71.65;99473.09;5034065;28;20521;-75
2022/02/28 07:35:57;;;;;;;20.03;13.37;;;0.30;69.60;;;-1.35;71.93;99472.25;5016136;28;20458;-78
2022/02/28 07:38:24;;;;;;;20.57;13.30;;;0.30;69.90;;;-1.15;70.95;99478.81;5034456;28;20510;-78
2022/02/28 07:40:51;;;;;;;20.23;13.73;;;0.40;69.10;;;-1.16;71.07;99490.41;5034212;28;20518;-77
2022/02/28 07:43:18;;;;;;;17.83;12.57;;;0.50;69.00;;;-1.07;71.05;99480.97;5034358;28;20481;-79
2022/02/28 07:45:45;;;;;;;19.00;12.87;;;0.50;68.80;;;-1.01;70.88;99491.16;5016646;28;20464;-80
2022/02/28 07:48:14;;;;;;;20.60;13.40;;;0.60;68.90;;;-0.83;70.26;99487.34;5015719;28;20438;-78
2022/02/28 07:50:41;;;;;;;16.97;13.53;;;0.70;68.60;;;-0.87;70.42;99476.94;5016679;28;20443;-79
2022/02/28 07:53:08;;;;;;;18.57;13.53;;;0.70;68.50;;;-0.71;70.31;99497.09;5016069;28;20489;-79
2022/02/28 07:55:35;;;;;;;20.03;13.07;;;0.80;68.30;;;-0.59;69.67;99498.06;5033496;28;20466;-77
2022/02/28 07:58:02;;;;;;;18.40;13.23;;;0.90;68.00;;;-0.62;69.63;99491.16;5015919;28;20481;-78
2022/02/28 08:00:29;;;;;;;21.53;14.00;;;1.00;67.60;;;-0.43;69.54;99496.03;5033543;28;20439;-78
2022/02/28 08:02:55;;;;;;;20.30;13.33;;;1.10;68.30;;;-0.29;68.23;99502.19;5018367;28;20522;-76
2022/02/28 08:05:24;;;;;;;20.90;13.80;;;1.20;67.40;;;-0.22;68.67;99489.31;5019728;28;20474;-78
2022/02/28 08:07:51;;;;;;;22.07;13.23;;;1.30;67.30;;;-0.21;67.60;99498.97;5040877;28;20568;-79
2022/02/28 08:10:18;;;;;;;23.37;14.97;;;1.30;66.30;;;-0.30;67.38;99490.69;5019280;28;20443;-77
2022/02/28 08:12:45;;;;;;;26.30;14.17;;;1.30;65.80;;;-0.34;67.96;99491.00;5037696;28;20454;-77
2022/02/28 08:15:12;;;;;;;21.80;13.40;;;1.30;65.60;;;-0.19;67.79;99491.75;5020398;28;20545;-78
2022/02/28 08:17:40;;;;;;;22.30;13.33;;;1.40;65.70;;;0.00;67.62;99483.28;5040281;28;20435;-79
2022/02/28 08:20:09;;;;;;;18.30;13.40;;;1.50;65.70;;;-0.02;67.36;99490.50;5042664;28;20517;-77
2022/02/28 08:22:38;;;;;;;17.00;13.57;;;1.50;65.30;;;0.13;67.69;99485.91;5026948;28;20440;-79
2022/02/28 08:25:06;;;;;;;18.87;13.10;;;1.60;65.50;;;0.23;66.63;99480.75;5025932;28;20962;-78
2022/02/28 08:27:33;;;;;;;18.53;12.83;;;1.70;65.20;;;0.24;66.01;99472.66;5043287;28;20466;-79
2022/02/28 08:30:00;;;;;;;18.43;13.83;;;1.80;64.60;;;0.30;65.54;99475.81;5040577;28;20474;-81
2022/02/28 08:32:27;;;;;;;17.00;13.83;;;1.80;63.90;;;-0.19;66.44;99404.91;5038342;28;20481;-79
2022/02/28 08:34:54;;;;;;;18.27;14.27;;;1.80;64.10;;;0.38;65.51;99473.44;5020671;28;20545;-80
2022/02/28 08:37:21;;;;;;;17.47;12.67;;;1.80;64.10;;;0.42;65.27;99472.25;5020977;28;20426;-79
2022/02/28 08:39:51;;;;;;;18.57;12.63;;;1.90;63.50;;;0.41;65.09;99475.88;5035314;28;20510;-79
2022/02/28 08:42:18;;;;;;;17.60;13.40;;;1.90;63.20;;;0.47;65.38;99470.09;5037153;28;20431;-79
2022/02/28 08:44:45;;;;;;;16.13;12.37;;;2.00;63.10;;;0.51;65.04;99474.22;5035831;28;20504;-80
2022/02/28 08:47:12;;;;;;;19.27;13.97;;;2.10;63.10;;;0.63;63.96;99480.44;5002985;28;20512;-80
2022/02/28 08:49:39;;;;;;;19.43;12.60;;;2.10;62.50;;;0.87;64.21;99482.19;5019679;28;20806;-78
2022/02/28 08:52:07;;;;;;;19.03;13.43;;;2.30;62.80;;;0.80;64.36;99479.13;5019620;28;20492;-78
2022/02/28 08:54:36;;;;;;;16.63;12.10;;;2.30;62.30;;;0.93;63.48;99488.84;5018978;28;20861;-78
2022/02/28 08:57:05;;;;;;;16.57;13.13;;;2.40;62.10;;;0.94;63.13;99471.91;5019119;28;20820;-81
2022/02/28 08:59:36;;;;;;;17.27;12.47;;;2.50;61.80;;;1.28;62.69;99477.28;5036750;28;20443;-80
2022/02/28 09:02:05;;;;;;;15.90;13.00;;;2.70;61.70;;;1.35;62.61;99473.19;5002493;28;20477;-77
2022/02/28 09:04:32;;;;;;;20.23;12.33;;;2.80;61.20;;;1.36;62.30;99484.69;5036682;28;20442;-78
2022/02/28 09:06:59;;;;;;;18.57;12.03;;;2.80;60.50;;;1.55;61.57;99490.28;5019184;28;20484;-79
2022/02/28 09:09:27;;;;;;;17.00;12.70;;;3.00;60.20;;;1.38;61.28;99435.66;5018705;28;20439;-77
2022/02/28 09:11:54;;;;;;;16.50;12.10;;;3.10;59.80;;;1.62;60.35;99461.31;5037556;28;20478;-79
2022/02/28 09:14:23;;;;;;;16.03;12.70;;;3.20;59.20;;;1.78;60.17;99484.09;5038766;28;20540;-78
2022/02/28 09:16:50;;;;;;;20.23;13.20;;;3.30;59.00;;;1.93;59.42;99482.84;5018259;28;20462;-79
2022/02/28 09:19:17;;;;;;;14.93;11.37;;;3.40;58.40;;;1.92;59.67;99470.50;5035593;28;20466;-77
2022/02/28 09:21:44;;;;;;;15.90;11.70;;;3.40;58.20;;;1.53;59.22;99424.75;5035559;28;20482;-77
2022/02/28 09:24:11;;;;;;;14.60;11.50;;;3.40;57.30;;;1.96;57.92;99471.06;5035826;28;20898;-78
2022/02/28 09:26:39;;;;;;;16.97;10.87;;;3.40;56.90;;;2.16;57.87;99465.94;5036453;28;20430;-81
2022/02/28 09:29:07;;;;;;;17.50;11.70;;;3.60;56.40;;;2.31;58.15;99466.50;5017929;28;20466;-81
2022/02/28 09:31:36;;;;;;;15.53;10.87;;;3.70;56.50;;;2.40;56.39;99461.25;5035867;28;20523;-79
2022/02/28 09:34:03;;;;;;;17.13;11.40;;;3.80;55.30;;;2.19;56.05;99461.19;5036002;28;20441;-80
2022/02/28 09:36:31;;;;;;;14.73;11.07;;;3.80;54.30;;;2.29;56.44;99463.13;5036296;28;20469;-79
2022/02/28 09:38:59;;;;;;;14.23;10.67;;;3.80;54.50;;;2.52;56.78;99461.19;5036600;28;20465;-78
2022/02/28 09:41:27;;;;;;;100.57;17.00;;;3.90;54.90;;;2.79;55.93;99457.19;5018075;28;20533;-79
2022/02/28 09:43:55;;;;;;;12.30;10.52;;;4.10;54.90;;;2.71;54.94;99460.50;5018754;28;20450;-81
2022/02/28 09:46:23;;;;;;;14.40;10.70;;;4.20;53.50;;;2.76;54.87;99463.63;5018161;28;20195;-72
2022/02/28 09:48:52;;;;;;;23.50;10.87;;;4.20;53.30;;;2.75;55.12;99453.94;5035229;28;20470;-71
2022/02/28 09:51:19;;;;;;;11.63;9.23;;;4.20;53.40;;;2.92;53.68;99468.53;5034895;28;20435;-72
2022/02/28 09:53:46;;;;;;;13.03;9.67;;;4.30;52.30;;;2.82;53.79;99464.94;5035068;28;20486;-72
2022/02/28 09:56:13;;;;;;;113.13;17.60;;;4.30;52.10;;;2.92;53.52;99468.53;5033703;28;20544;-69
2022/02/28 09:58:40;;;;;;;13.50;9.77;;;4.30;51.70;;;2.99;53.28;99474.19;5017056;28;20804;-69
2022/02/28 10:01:07;;;;;;;16.70;10.03;;;4.40;51.80;;;3.20;52.54;99476.00;5035067;28;20434;-70
2022/02/28 10:03:36;;;;;;;12.30;9.67;;;4.60;51.50;;;3.24;52.90;99477.41;5034822;28;20435;-72
2022/02/28 10:06:04;;;;;;;12.67;10.40;;;4.70;51.30;;;3.36;52.45;99480.88;5016956;28;20780;-68
2022/02/28 10:08:41;;;;;;;10.80;9.53;;;4.70;51.20;;;3.48;51.79;99471.75;5034478;28;20501;-69
2022/02/28 10:11:24;;;;;;;13.10;9.50;;;4.90;51.10;;;3.25;51.74;99425.69;5035128;28;20445;-69